Westrac — WTH4325 — position and weather

sailwx.info

Track history (hours):
 
Tides and Currents Weather Stations Pressure Air Temp Water Temp Dewpoint Dewpoint Depression Visibility Wind Speed Wind Dir Waves Ship Positions

Westrac

Owner: WESTERN TOWBOAT CO, SEATTLE, WA. More information available from US FCC via Universal Licensing System and Coast Guard Vessel Documentation Center.

Last reported at 2016-Jul-30 05:31 UTC. Time now 2016-Jul-31 05:32 UTC.
Position N 47°34' W 122°21'.

Length 23 m; draft 5 m.

Type: Tug. MMSI: 366993010.

Date/timePositionNaut miles runAvg speedWind from/ knotsBaromVisibWave heightAir tempDewpointWater temp
2016-Jul-30 05:31N 47°34' W 122°21'1 1.5
2016-Jul-30 04:33N 47°33' W 122°20'0 0.3
2016-Jul-30 03:33N 47°33' W 122°20'2 1.6
2016-Jul-30 02:33N 47°35' W 122°22'1 0.9
2016-Jul-30 01:33N 47°35' W 122°22'2 2.3
2016-Jul-30 00:33N 47°33' W 122°21'0 0.0
2016-Jul-29 23:33N 47°33' W 122°21'3 2.7
2016-Jul-29 22:33N 47°36' W 122°22'2 2.3
2016-Jul-29 21:33N 47°34' W 122°21'2 1.8
2016-Jul-29 20:34N 47°35' W 122°21'2 2.4
2016-Jul-29 19:33N 47°33' W 122°20'3 2.8
2016-Jul-29 18:33N 47°35' W 122°22'1 0.6
2016-Jul-29 17:33N 47°35' W 122°21'0 0.1
2016-Jul-29 16:33N 47°35' W 122°21'3 2.7
2016-Jul-29 15:33N 47°33' W 122°20'0 0.2
2016-Jul-29 14:33N 47°33' W 122°20'1 0.0
2016-Jul-28 22:33N 47°34' W 122°21'1 0.6
2016-Jul-28 21:33N 47°34' W 122°21'1 0.5
2016-Jul-28 20:33N 47°34' W 122°21'1 1.3
2016-Jul-28 19:33N 47°32' W 122°20'0 0.0
2016-Jul-28 18:30N 47°32' W 122°20'2 1.8
2016-Jul-28 17:33N 47°34' W 122°21'2 1.5
2016-Jul-28 16:33N 47°35' W 122°22'1 1.1
2016-Jul-28 15:33N 47°34' W 122°21'0 0.3
2016-Jul-28 14:33N 47°34' W 122°21'0 0.1
2016-Jul-28 13:32N 47°34' W 122°21'4 3.8
2016-Jul-28 12:33N 47°38' W 122°23'4 0.4
2016-Jul-28 02:29N 47°34' W 122°21'1 1.0
2016-Jul-28 01:33N 47°33' W 122°20'0 0.1
2016-Jul-28 00:33N 47°33' W 122°21'2 1.6
2016-Jul-27 23:33N 47°35' W 122°22'2 1.9
2016-Jul-27 22:33N 47°33' W 122°20'1 1.0
2016-Jul-27 21:33N 47°34' W 122°21'2 2.1
2016-Jul-27 20:33N 47°36' W 122°22'2 1.9
2016-Jul-27 19:34N 47°34' W 122°21'0 0.0
2016-Jul-27 18:33N 47°34' W 122°21'0 0.0
2016-Jul-27 17:33N 47°34' W 122°21'1 1.5
2016-Jul-27 16:33N 47°33' W 122°20'3 2.8
2016-Jul-27 15:33N 47°35' W 122°22'2 1.8
2016-Jul-27 14:33N 47°34' W 122°21'1 0.0
2016-Jul-26 19:34N 47°34' W 122°21'0 0.2
2016-Jul-26 18:34N 47°34' W 122°21'1 1.2
2016-Jul-26 17:33N 47°33' W 122°20'0 0.2
2016-Jul-26 16:33N 47°33' W 122°20'4 4.4
2016-Jul-26 15:33N 47°37' W 122°24'2 2.2
2016-Jul-26 14:33N 47°35' W 122°22'1 0.6
2016-Jul-26 13:34N 47°35' W 122°22'2 0.1
2016-Jul-25 18:18N 47°34' W 122°21'0 0.5
2016-Jul-25 17:33N 47°34' W 122°21'1 1.4
2016-Jul-25 16:34N 47°33' W 122°20'3 2.6
2016-Jul-25 15:33N 47°35' W 122°22'2 2.3
2016-Jul-25 14:33N 47°33' W 122°21'1 1.0
2016-Jul-25 13:33N 47°34' W 122°21'0 0.3
2016-Jul-25 12:33N 47°34' W 122°21'0 0.0
2016-Jul-25 00:34N 47°34' W 122°21'1 1.2
2016-Jul-24 23:33N 47°35' W 122°21'1 1.2
2016-Jul-24 22:34N 47°34' W 122°21'1 0.1
2016-Jul-24 15:34N 47°33' W 122°21'0 0.0
2016-Jul-23 18:34N 47°33' W 122°21'2 1.6
2016-Jul-23 17:33N 47°35' W 122°22'2 1.6
2016-Jul-23 16:33N 47°33' W 122°21'1 0.1
2016-Jul-23 04:28N 47°34' W 122°21'1 1.5
2016-Jul-23 03:34N 47°33' W 122°20'0 0.2
2016-Jul-23 02:33N 47°33' W 122°20'3 2.7
2016-Jul-23 01:33N 47°36' W 122°22'3 2.7
2016-Jul-23 00:34N 47°33' W 122°20'1 1.1
2016-Jul-22 23:34N 47°34' W 122°21'0 0.0
2016-Jul-22 22:34N 47°34' W 122°21'0 0.0
2016-Jul-22 04:16N 47°34' W 122°21'0 0.4
2016-Jul-22 03:33N 47°34' W 122°21'1 1.1
2016-Jul-22 02:33N 47°35' W 122°21'0 0.0
2016-Jul-22 01:33N 47°35' W 122°21'1 1.2
2016-Jul-22 00:33N 47°34' W 122°21'0 0.0
2016-Jul-21 23:33N 47°34' W 122°21'1 0.8
2016-Jul-21 22:33N 47°33' W 122°21'2 2.4
2016-Jul-21 21:34N 47°35' W 122°22'0 0.0
2016-Jul-21 20:33N 47°35' W 122°22'1 0.8
2016-Jul-21 19:33N 47°35' W 122°21'1 0.1
2016-Jul-21 02:33N 47°34' W 122°21'0 0.3
2016-Jul-21 01:34N 47°34' W 122°21'2 1.8
2016-Jul-21 00:33N 47°36' W 122°22'0 0.1
2016-Jul-20 23:33N 47°35' W 122°22'0 0.2
2016-Jul-20 22:34N 47°35' W 122°22'4 3.7
2016-Jul-20 21:33N 47°32' W 122°20'3 2.7
2016-Jul-20 20:33N 47°35' W 122°22'1 1.4
2016-Jul-20 19:33N 47°33' W 122°21'2 2.1
2016-Jul-20 18:33N 47°35' W 122°21'1 1.2
2016-Jul-20 17:33N 47°34' W 122°21'2 1.7
2016-Jul-20 16:33N 47°33' W 122°20'2 2.2
2016-Jul-20 15:33N 47°35' W 122°22'0 0.3
2016-Jul-20 14:33N 47°35' W 122°22'  
Track history (hours):
 
Tides and Currents Weather Stations Pressure Air Temp Water Temp Dewpoint Dewpoint Depression Visibility Wind Speed Wind Dir Waves Ship Positions

Westrac

Owner: WESTERN TOWBOAT CO, SEATTLE, WA. More information available from US FCC via Universal Licensing System and Coast Guard Vessel Documentation Center.

Last reported at 2016-Jul-30 05:31 UTC. Time now 2016-Jul-31 05:32 UTC.
Position N 47°34' W 122°21'.

Length 23 m; draft 5 m.

Type: Tug. MMSI: 366993010.

Date/timePositionNaut miles runAvg speedWind from/ knotsBaromVisibWave heightAir tempDewpointWater temp
2016-Jul-30 05:31N 47°34' W 122°21'1 1.5
2016-Jul-30 04:33N 47°33' W 122°20'0 0.3
2016-Jul-30 03:33N 47°33' W 122°20'2 1.6
2016-Jul-30 02:33N 47°35' W 122°22'1 0.9
2016-Jul-30 01:33N 47°35' W 122°22'2 2.3
2016-Jul-30 00:33N 47°33' W 122°21'0 0.0
2016-Jul-29 23:33N 47°33' W 122°21'3 2.7
2016-Jul-29 22:33N 47°36' W 122°22'2 2.3
2016-Jul-29 21:33N 47°34' W 122°21'2 1.8
2016-Jul-29 20:34N 47°35' W 122°21'2 2.4
2016-Jul-29 19:33N 47°33' W 122°20'3 2.8
2016-Jul-29 18:33N 47°35' W 122°22'1 0.6
2016-Jul-29 17:33N 47°35' W 122°21'0 0.1
2016-Jul-29 16:33N 47°35' W 122°21'3 2.7
2016-Jul-29 15:33N 47°33' W 122°20'0 0.2
2016-Jul-29 14:33N 47°33' W 122°20'1 0.0
2016-Jul-28 22:33N 47°34' W 122°21'1 0.6
2016-Jul-28 21:33N 47°34' W 122°21'1 0.5
2016-Jul-28 20:33N 47°34' W 122°21'1 1.3
2016-Jul-28 19:33N 47°32' W 122°20'0 0.0
2016-Jul-28 18:30N 47°32' W 122°20'2 1.8
2016-Jul-28 17:33N 47°34' W 122°21'2 1.5
2016-Jul-28 16:33N 47°35' W 122°22'1 1.1
2016-Jul-28 15:33N 47°34' W 122°21'0 0.3
2016-Jul-28 14:33N 47°34' W 122°21'0 0.1
2016-Jul-28 13:32N 47°34' W 122°21'4 3.8
2016-Jul-28 12:33N 47°38' W 122°23'4 0.4
2016-Jul-28 02:29N 47°34' W 122°21'1 1.0
2016-Jul-28 01:33N 47°33' W 122°20'0 0.1
2016-Jul-28 00:33N 47°33' W 122°21'2 1.6
2016-Jul-27 23:33N 47°35' W 122°22'2 1.9
2016-Jul-27 22:33N 47°33' W 122°20'1 1.0
2016-Jul-27 21:33N 47°34' W 122°21'2 2.1
2016-Jul-27 20:33N 47°36' W 122°22'2 1.9
2016-Jul-27 19:34N 47°34' W 122°21'0 0.0
2016-Jul-27 18:33N 47°34' W 122°21'0 0.0
2016-Jul-27 17:33N 47°34' W 122°21'1 1.5
2016-Jul-27 16:33N 47°33' W 122°20'3 2.8
2016-Jul-27 15:33N 47°35' W 122°22'2 1.8
2016-Jul-27 14:33N 47°34' W 122°21'1 0.0
2016-Jul-26 19:34N 47°34' W 122°21'0 0.2
2016-Jul-26 18:34N 47°34' W 122°21'1 1.2
2016-Jul-26 17:33N 47°33' W 122°20'0 0.2
2016-Jul-26 16:33N 47°33' W 122°20'4 4.4
2016-Jul-26 15:33N 47°37' W 122°24'2 2.2
2016-Jul-26 14:33N 47°35' W 122°22'1 0.6
2016-Jul-26 13:34N 47°35' W 122°22'2 0.1
2016-Jul-25 18:18N 47°34' W 122°21'0 0.5
2016-Jul-25 17:33N 47°34' W 122°21'1 1.4
2016-Jul-25 16:34N 47°33' W 122°20'3 2.6
2016-Jul-25 15:33N 47°35' W 122°22'2 2.3
2016-Jul-25 14:33N 47°33' W 122°21'1 1.0
2016-Jul-25 13:33N 47°34' W 122°21'0 0.3
2016-Jul-25 12:33N 47°34' W 122°21'0 0.0
2016-Jul-25 00:34N 47°34' W 122°21'1 1.2
2016-Jul-24 23:33N 47°35' W 122°21'1 1.2
2016-Jul-24 22:34N 47°34' W 122°21'1 0.1
2016-Jul-24 15:34N 47°33' W 122°21'0 0.0
2016-Jul-23 18:34N 47°33' W 122°21'2 1.6
2016-Jul-23 17:33N 47°35' W 122°22'2 1.6
2016-Jul-23 16:33N 47°33' W 122°21'1 0.1
2016-Jul-23 04:28N 47°34' W 122°21'1 1.5
2016-Jul-23 03:34N 47°33' W 122°20'0 0.2
2016-Jul-23 02:33N 47°33' W 122°20'3 2.7
2016-Jul-23 01:33N 47°36' W 122°22'3 2.7
2016-Jul-23 00:34N 47°33' W 122°20'1 1.1
2016-Jul-22 23:34N 47°34' W 122°21'0 0.0
2016-Jul-22 22:34N 47°34' W 122°21'0 0.0
2016-Jul-22 04:16N 47°34' W 122°21'0 0.4
2016-Jul-22 03:33N 47°34' W 122°21'1 1.1
2016-Jul-22 02:33N 47°35' W 122°21'0 0.0
2016-Jul-22 01:33N 47°35' W 122°21'1 1.2
2016-Jul-22 00:33N 47°34' W 122°21'0 0.0
2016-Jul-21 23:33N 47°34' W 122°21'1 0.8
2016-Jul-21 22:33N 47°33' W 122°21'2 2.4
2016-Jul-21 21:34N 47°35' W 122°22'0 0.0
2016-Jul-21 20:33N 47°35' W 122°22'1 0.8
2016-Jul-21 19:33N 47°35' W 122°21'1 0.1
2016-Jul-21 02:33N 47°34' W 122°21'0 0.3
2016-Jul-21 01:34N 47°34' W 122°21'2 1.8
2016-Jul-21 00:33N 47°36' W 122°22'0 0.1
2016-Jul-20 23:33N 47°35' W 122°22'0 0.2
2016-Jul-20 22:34N 47°35' W 122°22'4 3.7
2016-Jul-20 21:33N 47°32' W 122°20'3 2.7
2016-Jul-20 20:33N 47°35' W 122°22'1 1.4
2016-Jul-20 19:33N 47°33' W 122°21'2 2.1
2016-Jul-20 18:33N 47°35' W 122°21'1 1.2
2016-Jul-20 17:33N 47°34' W 122°21'2 1.7
2016-Jul-20 16:33N 47°33' W 122°20'2 2.2
2016-Jul-20 15:33N 47°35' W 122°22'0 0.3
2016-Jul-20 14:33N 47°35' W 122°22'  

Dump ship's entire track history